Time;durP1;ratioP1;P1;durP2;ratioP2;P2;SDS_P1;SDS_P2;PMS_P1;PMS_P2;Temp;Humidity;BMP_temperature;BMP_pressure;BME280_temperature;BME280_humidity;BME280_pressure;Samples;Min_cycle;Max_cycle;Signal;HPM_P1;HPM_P2
2022/08/31 00:04:04;;;;;;;;;8.50;8.50;;;;;23.25;42.90;101512.78;5002632;28;45289;-81
2022/08/31 00:06:31;;;;;;;;;8.00;8.00;;;;;23.24;43.21;101515.56;5001321;28;45349;-80
2022/08/31 00:08:58;;;;;;;;;8.00;8.00;;;;;23.18;43.11;101516.69;5001215;28;45457;-80
2022/08/31 00:11:28;;;;;;;;;7.25;6.50;;;;;23.17;42.53;101512.25;5000962;28;46243;-80
2022/08/31 00:14:00;;;;;;;;;6.00;6.00;;;;;23.15;42.81;101494.44;5000584;28;45175;-80
2022/08/31 00:16:31;;;;;;;;;9.75;9.00;;;;;23.13;42.95;101502.59;5002468;28;45332;-80
2022/08/31 00:18:56;;;;;;;;;8.50;7.00;;;;;23.09;43.07;101503.66;5000730;28;45569;-80
2022/08/31 00:21:25;;;;;;;;;8.00;7.00;;;;;23.07;42.81;101509.13;5000714;28;48194;-80
2022/08/31 00:23:51;;;;;;;;;6.25;6.00;;;;;23.03;43.28;101495.88;5000649;28;45372;-80
2022/08/31 00:26:17;;;;;;;;;8.25;6.75;;;;;23.01;43.07;101495.06;5002331;28;45427;-80
2022/08/31 00:28:43;;;;;;;;;6.75;6.75;;;;;22.97;43.67;101502.38;5000272;28;45729;-80
2022/08/31 00:31:09;;;;;;;;;8.25;7.50;;;;;22.90;43.58;101491.00;5001828;28;48025;-80
2022/08/31 00:33:37;;;;;;;;;9.00;7.25;;;;;22.86;43.69;101493.91;5001851;28;45245;-80
2022/08/31 00:36:05;;;;;;;;;7.00;7.00;;;;;22.86;43.03;101494.75;5000604;28;45402;-81
2022/08/31 00:38:31;;;;;;;;;6.75;5.75;;;;;22.84;43.10;101495.78;5000357;28;45635;-79
2022/08/31 00:40:56;;;;;;;;;9.75;9.25;;;;;22.85;43.48;101498.41;5001683;28;45378;-80
2022/08/31 00:43:54;;;;;;;;;8.75;8.25;;;;;22.83;44.10;101496.72;5000058;28;45422;-80
2022/08/31 00:46:23;;;;;;;;;8.75;8.50;;;;;22.79;44.04;101497.78;5002248;28;45279;-80
2022/08/31 00:49:20;;;;;;;;;10.00;9.75;;;;;22.73;44.71;101498.91;5021391;28;45442;-80
2022/08/31 00:52:09;;;;;;;;;9.50;9.00;;;;;22.70;44.92;101487.44;5021136;28;45424;-81
2022/08/31 00:54:43;;;;;;;;;9.00;8.00;;;;;22.68;44.94;101493.72;5013896;28;45422;-80
2022/08/31 00:57:10;;;;;;;;;8.75;8.75;;;;;22.65;45.09;101498.38;5019929;28;45287;-80
2022/08/31 00:59:38;;;;;;;;;9.50;8.25;;;;;22.63;44.97;101494.88;5019491;28;45288;-80
2022/08/31 01:02:05;;;;;;;;;7.50;7.00;;;;;22.61;44.85;101502.09;5019621;28;47047;-81
2022/08/31 01:04:31;;;;;;;;;6.75;5.75;;;;;22.60;45.21;101511.09;5021990;28;45487;-80
2022/08/31 01:06:57;;;;;;;;;9.00;7.00;;;;;22.56;44.84;101494.25;5021840;28;45437;-80
2022/08/31 01:09:26;;;;;;;;;7.25;7.25;;;;;22.55;45.34;101511.28;5020869;28;45430;-80
2022/08/31 01:11:51;;;;;;;;;7.00;7.00;;;;;22.54;45.28;101509.56;5019682;28;47118;-80
2022/08/31 01:14:17;;;;;;;;;8.50;7.25;;;;;22.51;45.43;101507.00;5020677;28;45237;-80
2022/08/31 01:16:54;;;;;;;;;6.25;6.25;;;;;22.49;45.30;101505.31;5021114;28;45614;-80
2022/08/31 01:19:44;;;;;;;;;8.00;7.50;;;;;22.49;45.36;101511.53;5020964;28;45434;-80
2022/08/31 01:22:21;;;;;;;;;7.50;7.50;;;;;22.46;45.62;101512.53;5020112;28;45592;-80
2022/08/31 01:24:48;;;;;;;;;5.25;5.25;;;;;22.40;45.63;101507.44;5019587;28;45288;-80
2022/08/31 01:27:15;;;;;;;;;5.00;5.00;;;;;22.34;45.57;101512.16;5020799;28;45445;-80
2022/08/31 01:29:41;;;;;;;;;7.75;6.25;;;;;22.24;45.37;101517.91;5019303;28;45422;-80
2022/08/31 01:32:07;;;;;;;;;6.00;6.00;;;;;22.20;45.47;101518.97;5019481;28;47044;-80
2022/08/31 01:34:33;;;;;;;;;7.75;6.75;;;;;22.15;45.50;101515.53;5019392;28;46070;-80
2022/08/31 01:36:59;;;;;;;;;6.00;5.00;;;;;22.11;45.67;101521.97;5020762;28;45229;-80
2022/08/31 01:39:25;;;;;;;;;6.00;6.00;;;;;22.10;45.94;101517.53;5020512;28;45254;-80
2022/08/31 01:41:51;;;;;;;;;6.25;6.25;;;;;22.06;45.78;101518.59;5018995;28;47416;-80
2022/08/31 01:44:20;;;;;;;;;6.75;6.75;;;;;22.00;46.01;101510.81;5019006;28;45353;-80
2022/08/31 01:46:46;;;;;;;;;6.25;5.50;;;;;22.00;45.97;101514.38;5018997;28;45356;-80
2022/08/31 01:49:14;;;;;;;;;5.75;5.75;;;;;22.01;46.45;101528.63;5019111;28;45378;-81
2022/08/31 01:51:40;;;;;;;;;6.50;6.50;;;;;21.92;46.05;101516.47;5019167;28;48071;-80
2022/08/31 01:54:06;;;;;;;;;6.00;5.25;;;;;21.95;45.98;101523.53;5019371;28;45901;-80
2022/08/31 01:56:35;;;;;;;;;5.75;5.75;;;;;21.90;46.05;101526.38;5019114;28;45209;-80
2022/08/31 01:59:01;;;;;;;;;4.75;4.75;;;;;21.87;46.26;101523.81;5019230;28;45521;-81
2022/08/31 02:01:32;;;;;;;;;7.00;7.00;;;;;21.86;46.14;101516.69;5018759;28;46502;-80
2022/08/31 02:03:58;;;;;;;;;6.50;5.50;;;;;21.84;46.56;101515.91;5018902;28;45868;-80
2022/08/31 02:06:24;;;;;;;;;5.00;5.00;;;;;21.80;46.08;101516.94;5019980;28;45277;-80
2022/08/31 02:08:50;;;;;;;;;8.25;6.50;;;;;21.78;46.60;101522.38;5020218;28;45350;-80
2022/08/31 02:11:15;;;;;;;;;6.25;6.25;;;;;21.78;46.50;101525.03;5019759;28;45440;-80
2022/08/31 02:13:41;;;;;;;;;5.25;5.00;;;;;21.75;46.58;101524.28;5020071;28;45517;-80
2022/08/31 02:16:06;;;;;;;;;6.00;5.75;;;;;21.72;46.55;101527.06;5018739;28;45540;-80
2022/08/31 02:18:34;;;;;;;;;5.25;5.00;;;;;21.71;46.38;101522.66;5019973;28;45466;-80
2022/08/31 02:20:59;;;;;;;;;6.25;5.25;;;;;21.69;46.35;101524.50;5019885;28;45237;-80
2022/08/31 02:23:25;;;;;;;;;6.00;6.00;;;;;21.65;46.65;101513.03;5019926;28;45292;-80
2022/08/31 02:25:50;;;;;;;;;7.00;6.00;;;;;21.65;46.61;101518.41;5018730;28;45755;-80
2022/08/31 02:28:17;;;;;;;;;4.00;4.00;;;;;21.63;46.79;101516.72;5019750;28;45224;-80
2022/08/31 02:30:44;;;;;;;;;7.25;5.50;;;;;21.62;46.83;101522.97;5019802;28;45533;-80
2022/08/31 02:33:10;;;;;;;;;4.00;4.00;;;;;21.60;46.69;101528.41;5018271;28;45281;-80
2022/08/31 02:35:37;;;;;;;;;5.00;4.75;;;;;21.58;46.93;101531.13;5017685;28;45315;-80
2022/08/31 02:38:03;;;;;;;;;4.25;4.00;;;;;21.57;46.89;101540.13;5018327;28;45316;-80
2022/08/31 02:40:28;;;;;;;;;7.00;5.50;;;;;21.55;46.94;101536.63;5019479;28;45301;-80
2022/08/31 02:42:54;;;;;;;;;6.00;6.00;;;;;21.50;47.35;101537.72;5018233;28;45815;-80
2022/08/31 02:45:21;;;;;;;;;7.50;7.00;;;;;21.49;47.18;101536.84;5018146;28;45253;-80
2022/08/31 02:47:46;;;;;;;;;7.25;5.00;;;;;21.46;46.88;101542.28;5019617;28;45280;-80
2022/08/31 02:50:12;;;;;;;;;6.75;6.75;;;;;21.45;46.67;101545.03;5018864;28;47110;-80
2022/08/31 02:52:37;;;;;;;;;6.00;5.50;;;;;21.41;47.16;101548.75;5019706;28;45186;-80
2022/08/31 02:55:03;;;;;;;;;5.00;5.00;;;;;21.39;47.46;101546.16;5019643;28;45728;-81
2022/08/31 02:57:29;;;;;;;;;7.50;7.50;;;;;21.39;47.50;101553.31;5018431;28;45618;-80
2022/08/31 02:59:55;;;;;;;;;6.50;6.50;;;;;21.35;47.43;101553.38;5019133;28;45439;-80
2022/08/31 03:02:22;;;;;;;;;5.50;5.50;;;;;21.27;47.36;101542.03;5017940;28;45411;-81
2022/08/31 03:04:48;;;;;;;;;8.75;6.25;;;;;21.25;47.70;101540.34;5019491;28;45486;-80
2022/08/31 03:07:13;;;;;;;;;5.50;5.00;;;;;21.24;47.43;101541.28;5019396;28;45307;-80
2022/08/31 03:09:39;;;;;;;;;6.75;6.75;;;;;21.22;47.72;101537.78;5017951;28;47166;-80
2022/08/31 03:12:04;;;;;;;;;7.25;6.75;;;;;21.21;47.62;101544.94;5017970;28;45284;-80
2022/08/31 03:14:30;;;;;;;;;6.25;5.00;;;;;21.18;47.96;101542.38;5017956;28;45252;-80
2022/08/31 03:16:55;;;;;;;;;6.75;6.00;;;;;21.20;47.53;101548.56;5019131;28;45581;-80
2022/08/31 03:19:21;;;;;;;;;6.25;6.00;;;;;21.16;47.83;101546.91;5019116;28;45196;-80
2022/08/31 03:21:46;;;;;;;;;6.75;6.00;;;;;21.13;47.56;101547.91;5019728;28;45373;-80
2022/08/31 03:24:16;;;;;;;;;7.75;7.75;;;;;21.11;47.88;101552.41;5020490;28;45205;-80
2022/08/31 03:26:42;;;;;;;;;5.00;4.25;;;;;21.09;47.78;101556.97;5019425;28;45518;-80
2022/08/31 03:29:07;;;;;;;;;6.00;6.00;;;;;21.08;47.95;101559.69;5016807;28;47872;-80
2022/08/31 03:31:33;;;;;;;;;7.25;6.25;;;;;21.05;47.76;101549.09;5018881;28;45261;-80
2022/08/31 03:33:58;;;;;;;;;7.00;7.00;;;;;21.02;48.03;101549.22;5017993;28;45720;-80
2022/08/31 03:36:24;;;;;;;;;5.25;5.25;;;;;20.99;48.25;101541.28;5004166;28;45605;-80
2022/08/31 03:38:49;;;;;;;;;7.50;6.50;;;;;20.97;48.12;101549.34;4997891;28;46216;-80
2022/08/31 03:41:20;;;;;;;;;5.00;5.00;;;;;20.92;48.17;101562.03;4997720;28;45246;-80
2022/08/31 03:43:46;;;;;;;;;5.50;5.50;;;;;20.85;48.19;101555.13;4999223;28;45357;-80
2022/08/31 03:46:11;;;;;;;;;5.00;5.00;;;;;20.84;48.30;101558.72;4999366;28;45359;-80
2022/08/31 03:48:37;;;;;;;;;6.25;6.25;;;;;20.78;48.29;101557.13;5020369;28;46260;-80
2022/08/31 03:51:02;;;;;;;;;6.25;4.50;;;;;20.77;48.28;101557.16;5020701;28;45479;-80
2022/08/31 03:53:28;;;;;;;;;6.00;6.00;;;;;20.74;48.17;101555.47;5022354;28;45324;-80
2022/08/31 03:56:00;;;;;;;;;4.50;4.50;;;;;20.70;48.52;101557.38;5020578;28;45674;-80
2022/08/31 03:58:29;;;;;;;;;5.75;5.75;;;;;20.73;48.15;101564.44;5020697;28;47618;-80
2022/08/31 04:00:55;;;;;;;;;6.25;5.50;;;;;20.71;48.60;101563.59;5021180;28;45284;-80
2022/08/31 04:03:22;;;;;;;;;10.00;8.75;;;;;20.66;48.51;101554.84;5000860;28;45389;-80
2022/08/31 04:05:47;;;;;;;;;7.00;6.00;;;;;20.65;48.89;101561.13;5001876;28;45272;-80
2022/08/31 04:08:14;;;;;;;;;7.50;7.50;;;;;20.64;48.97;101560.28;5002086;28;46190;-80
2022/08/31 04:10:41;;;;;;;;;5.00;5.00;;;;;20.64;48.99;101562.06;5000597;28;45686;-80
2022/08/31 04:13:07;;;;;;;;;7.00;5.50;;;;;20.63;48.82;101554.94;5002107;28;45319;-80
2022/08/31 04:15:35;;;;;;;;;7.00;6.50;;;;;20.59;48.78;101562.22;5001912;28;45340;-80
2022/08/31 04:18:00;;;;;;;;;8.25;8.25;;;;;20.63;49.06;101569.19;5000509;28;47141;-80
2022/08/31 04:20:25;;;;;;;;;8.00;6.00;;;;;20.58;48.93;101567.59;5001813;28;45269;-80
2022/08/31 04:22:51;;;;;;;;;9.00;8.00;;;;;20.57;49.12;101561.38;5000892;28;45735;-80
2022/08/31 04:25:16;;;;;;;;;6.25;5.25;;;;;20.58;49.11;101575.63;5001944;28;45321;-80
2022/08/31 04:27:41;;;;;;;;;6.75;5.00;;;;;20.56;49.56;101577.50;5002023;28;45774;-80
2022/08/31 04:30:07;;;;;;;;;6.75;6.75;;;;;20.52;49.11;101574.00;5001667;28;45209;-80
2022/08/31 04:32:34;;;;;;;;;8.00;8.00;;;;;20.54;49.59;101574.00;5009489;28;45343;-80
2022/08/31 04:35:00;;;;;;;;;8.25;7.50;;;;;20.47;49.46;101571.50;5018805;28;45603;-80
2022/08/31 04:37:26;;;;;;;;;7.50;7.00;;;;;20.47;49.36;101575.94;5000425;28;47507;-80
2022/08/31 04:39:57;;;;;;;;;8.00;7.00;;;;;20.46;49.55;101574.19;5000163;28;45395;-80
2022/08/31 04:42:23;;;;;;;;;9.50;7.00;;;;;20.42;49.70;101570.75;5000344;28;45295;-80
2022/08/31 04:44:48;;;;;;;;;9.25;8.75;;;;;20.40;49.47;101566.38;5001162;28;45641;-80
2022/08/31 04:47:14;;;;;;;;;7.00;7.00;;;;;20.40;49.89;101569.06;5008179;28;46297;-80
2022/08/31 04:49:39;;;;;;;;;9.00;9.00;;;;;20.41;49.57;101573.47;5019970;28;45669;-80
2022/08/31 04:52:05;;;;;;;;;6.75;6.25;;;;;20.35;49.77;101563.84;5020118;28;45416;-80
2022/08/31 04:54:31;;;;;;;;;8.50;6.50;;;;;20.34;49.64;101567.44;5019579;28;45513;-80
2022/08/31 04:56:58;;;;;;;;;7.00;7.00;;;;;20.37;49.97;101578.03;5018975;28;46395;-80
2022/08/31 04:59:26;;;;;;;;;8.25;8.00;;;;;20.31;50.34;101567.50;5019374;28;45392;-80
2022/08/31 05:01:52;;;;;;;;;8.00;8.00;;;;;20.30;50.15;101562.22;4999925;28;45209;-80
2022/08/31 05:04:17;;;;;;;;;8.00;6.25;;;;;20.31;50.22;101563.97;4999535;28;45623;-80
2022/08/31 05:06:44;;;;;;;;;8.25;8.00;;;;;20.26;50.12;101559.66;5001437;28;46047;-79
2022/08/31 05:09:17;;;;;;;;;6.75;6.50;;;;;20.29;49.92;101572.06;5001293;28;45518;-80
2022/08/31 05:11:45;;;;;;;;;9.00;9.00;;;;;20.23;49.61;101564.19;5001698;28;45221;-80
2022/08/31 05:14:12;;;;;;;;;6.50;6.25;;;;;20.22;50.37;101562.47;4999290;28;45789;-80
2022/08/31 05:16:39;;;;;;;;;5.75;5.75;;;;;20.21;50.26;101571.44;4999352;28;47099;-79
2022/08/31 05:19:05;;;;;;;;;9.75;9.75;;;;;20.17;50.17;101559.91;4999309;28;45295;-80
2022/08/31 05:21:33;;;;;;;;;7.00;7.00;;;;;20.21;50.14;101577.63;5000990;28;45202;-80
2022/08/31 05:24:02;;;;;;;;;3.75;3.75;;;;;20.20;50.30;101577.66;5017946;28;45323;-80
2022/08/31 05:26:33;;;;;;;;;8.75;7.25;;;;;20.19;49.91;101579.47;5019224;28;47113;-80
2022/08/31 05:29:01;;;;;;;;;7.75;6.00;;;;;20.16;50.38;101571.56;5000450;28;45351;-80
2022/08/31 05:31:27;;;;;;;;;6.25;6.25;;;;;20.15;49.75;101575.13;5000620;28;45364;-80
2022/08/31 05:33:54;;;;;;;;;3.25;3.00;;;;;20.19;50.37;101583.97;5000832;28;45383;-80
2022/08/31 05:36:19;;;;;;;;;8.00;8.00;;;;;20.15;50.07;101577.81;4999482;28;45994;-80
2022/08/31 05:38:45;;;;;;;;;8.50;7.75;;;;;20.11;50.66;101575.28;5000613;28;45254;-80
2022/08/31 05:41:11;;;;;;;;;8.50;8.50;;;;;20.08;50.39;101568.25;4999425;28;45330;-80
2022/08/31 05:43:37;;;;;;;;;6.75;6.75;;;;;20.08;50.78;101573.59;5000473;28;45256;-80
2022/08/31 05:46:10;;;;;;;;;8.00;8.00;;;;;20.11;50.40;101576.16;5000575;28;45252;-80
2022/08/31 05:48:36;;;;;;;;;8.25;6.75;;;;;20.11;50.84;101586.00;5020034;28;45296;-80
2022/08/31 05:51:05;;;;;;;;;8.75;7.75;;;;;20.08;50.51;101586.09;5019253;28;45274;-80
2022/08/31 05:53:31;;;;;;;;;8.25;8.25;;;;;20.02;51.03;101573.75;5018823;28;45454;-80
2022/08/31 05:56:09;;;;;;;;;9.00;8.75;;;;;20.02;51.11;101588.00;5019703;28;46070;-80
2022/08/31 05:58:36;;;;;;;;;6.25;6.25;;;;;19.97;51.16;101589.06;5020117;28;45372;-81
2022/08/31 06:01:02;;;;;;;;;8.00;7.50;;;;;19.94;51.07;101595.38;5018672;28;45355;-82
2022/08/31 06:03:28;;;;;;;;;8.50;8.00;;;;;19.90;51.39;101588.34;5018762;28;45852;-80
2022/08/31 06:05:54;;;;;;;;;6.00;6.00;;;;;19.86;51.63;101580.47;5019915;28;45988;-80
2022/08/31 06:08:19;;;;;;;;;8.50;7.25;;;;;19.81;51.70;101573.47;5018866;28;45514;-80
2022/08/31 06:10:45;;;;;;;;;10.00;9.25;;;;;19.79;51.55;101582.44;5018807;28;45280;-80
2022/08/31 06:13:15;;;;;;;;;12.25;9.75;;;;;19.78;51.55;101573.56;5020077;28;45418;-80
2022/08/31 06:15:42;;;;;;;;;9.00;8.00;;;;;19.78;51.92;101575.34;5018446;28;47270;-80
2022/08/31 06:18:08;;;;;;;;;7.75;7.50;;;;;19.78;52.03;101575.34;5018608;28;45348;-80
2022/08/31 06:20:38;;;;;;;;;6.50;6.25;;;;;19.82;51.92;101577.88;5019973;28;45529;-80
2022/08/31 06:23:06;;;;;;;;;9.25;8.50;;;;;19.82;52.17;101577.88;5018649;28;45291;-80
2022/08/31 06:25:32;;;;;;;;;8.75;8.75;;;;;19.88;51.75;101592.00;5019657;28;46296;-81
2022/08/31 06:27:59;;;;;;;;;9.00;8.00;;;;;19.85;51.81;101586.75;5008382;28;45435;-80
2022/08/31 06:30:27;;;;;;;;;9.50;8.25;;;;;19.90;52.03;101593.69;4998633;28;45260;-80
2022/08/31 06:32:54;;;;;;;;;11.75;8.50;;;;;19.87;51.89;101583.09;4998908;28;45431;-80
2022/08/31 06:35:19;;;;;;;;;8.75;8.00;;;;;19.92;51.90;101589.19;4999672;28;45262;-80
2022/08/31 06:37:45;;;;;;;;;7.50;6.75;;;;;20.01;51.61;101604.94;4999896;28;45274;-80
2022/08/31 06:40:11;;;;;;;;;7.50;7.50;;;;;20.02;51.64;101593.34;4999920;28;45235;-80
2022/08/31 06:42:36;;;;;;;;;8.00;7.00;;;;;20.08;51.79;101599.44;4999866;28;45414;-80
2022/08/31 06:45:03;;;;;;;;;8.00;8.00;;;;;20.12;51.50;101596.63;4998214;28;45884;-80
2022/08/31 06:47:29;;;;;;;;;9.00;7.00;;;;;20.15;51.69;101593.84;5008498;28;45595;-80
2022/08/31 06:49:56;;;;;;;;;9.50;7.50;;;;;20.18;51.78;101596.47;5019566;28;45473;-80
2022/08/31 06:52:22;;;;;;;;;7.75;7.25;;;;;20.22;51.04;101594.56;5019608;28;45327;-80
2022/08/31 06:54:47;;;;;;;;;8.25;7.00;;;;;20.22;51.13;101595.44;5017822;28;48538;-80
2022/08/31 06:57:13;;;;;;;;;9.75;7.25;;;;;20.24;51.27;101598.94;5017763;28;45482;-80
2022/08/31 06:59:38;;;;;;;;;10.25;9.00;;;;;20.24;51.35;101598.94;5019267;28;45182;-80
2022/08/31 07:02:04;;;;;;;;;8.00;6.75;;;;;20.27;51.06;101609.53;5019290;28;45479;-81
2022/08/31 07:04:35;;;;;;;;;11.25;9.00;;;;;20.30;51.07;101605.91;5017667;28;47176;-80
2022/08/31 07:07:00;;;;;;;;;6.50;6.25;;;;;20.30;51.34;101600.53;5019200;28;45243;-80
2022/08/31 07:09:26;;;;;;;;;12.00;11.00;;;;;20.31;51.27;101594.25;5017540;28;45407;-80
2022/08/31 07:11:52;;;;;;;;;11.00;9.25;;;;;20.39;50.87;101610.06;5019268;28;45324;-80
2022/08/31 07:14:21;;;;;;;;;9.50;8.25;;;;;20.42;51.03;101608.19;5017211;28;47052;-80
2022/08/31 07:16:46;;;;;;;;;6.75;5.75;;;;;20.44;50.99;101598.31;5017407;28;45362;-80
2022/08/31 07:19:12;;;;;;;;;8.00;7.25;;;;;20.47;50.70;101597.34;5018922;28;45171;-80
2022/08/31 07:21:47;;;;;;;;;9.25;8.25;;;;;20.53;50.92;101607.88;5021848;28;45185;-80
2022/08/31 07:24:16;;;;;;;;;9.25;8.00;;;;;20.53;50.36;101596.25;5020903;28;47377;-80
2022/08/31 07:26:46;;;;;;;;;8.00;6.25;;;;;20.55;50.56;101589.09;5021029;28;45582;-81
2022/08/31 07:29:14;;;;;;;;;8.50;8.50;;;;;20.59;50.01;101597.00;5021794;28;45252;-81
2022/08/31 07:31:45;;;;;;;;;8.25;7.00;;;;;20.61;50.52;101603.19;5020706;28;45339;-81
2022/08/31 07:34:16;;;;;;;;;8.00;6.25;;;;;20.64;50.30;101595.06;5020803;28;47006;-81
2022/08/31 07:42:16;;;;;;;;;11.75;10.00;;;;;20.84;49.95;101596.19;5021859;28;45585;-82
2022/08/31 07:44:41;;;;;;;;;9.00;9.00;;;;;20.90;49.83;101598.66;5020416;28;46948;-81
2022/08/31 07:47:11;;;;;;;;;12.75;12.00;;;;;20.91;49.70;101592.41;5021770;28;45276;-81
2022/08/31 07:49:43;;;;;;;;;9.75;9.25;;;;;20.97;49.78;101599.34;5020799;28;45364;-81
2022/08/31 07:52:10;;;;;;;;;9.50;7.25;;;;;21.03;49.83;101605.38;5021999;28;45470;-81
2022/08/31 07:54:35;;;;;;;;;10.00;7.00;;;;;21.10;49.81;101608.72;5020229;28;48019;-81
2022/08/31 07:57:04;;;;;;;;;9.50;8.25;;;;;21.14;49.19;101613.94;5021832;28;45358;-81
2022/08/31 07:59:31;;;;;;;;;10.00;9.75;;;;;21.18;49.58;101603.13;5021679;28;45468;-81
2022/08/31 08:02:00;;;;;;;;;9.00;8.75;;;;;21.27;49.36;101602.78;5020360;28;45422;-82
2022/08/31 08:04:27;;;;;;;;;8.00;8.00;;;;;21.32;49.43;101596.34;5018869;28;45470;-82
2022/08/31 08:06:59;;;;;;;;;8.75;8.50;;;;;21.43;49.50;101592.44;5000680;28;45347;-82
2022/08/31 08:09:26;;;;;;;;;9.75;9.75;;;;;21.53;49.32;101604.59;5000503;28;45350;-82
2022/08/31 08:11:56;;;;;;;;;9.50;9.25;;;;;21.57;48.92;101596.41;5002957;28;45596;-82
2022/08/31 08:14:23;;;;;;;;;8.25;8.25;;;;;21.64;48.75;101582.75;5016238;28;45280;-81
2022/08/31 08:16:48;;;;;;;;;17.75;15.75;;;;;21.71;48.43;101595.03;5002525;28;45432;-81
2022/08/31 08:19:14;;;;;;;;;11.50;10.00;;;;;21.77;48.56;101589.44;5001069;28;45469;-81
2022/08/31 08:21:42;;;;;;;;;11.00;10.00;;;;;21.85;48.19;101586.47;5001144;28;45896;-82
2022/08/31 08:24:08;;;;;;;;;11.75;10.25;;;;;21.90;48.07;101581.81;5000914;28;47276;-81
2022/08/31 08:26:34;;;;;;;;;12.25;10.00;;;;;21.98;48.11;101585.06;5002337;28;45247;-81
2022/08/31 08:28:59;;;;;;;;;9.75;8.50;;;;;22.06;48.17;101574.94;5002561;28;45312;-82
2022/08/31 08:31:27;;;;;;;;;10.00;9.00;;;;;22.16;47.75;101578.09;5001517;28;45374;-81
2022/08/31 08:33:53;;;;;;;;;12.50;11.00;;;;;22.26;48.01;101584.91;5017596;28;48069;-81
2022/08/31 08:36:19;;;;;;;;;9.50;9.50;;;;;22.34;47.31;101579.25;5020057;28;45914;-81
2022/08/31 08:38:47;;;;;;;;;9.50;8.00;;;;;22.36;47.22;101574.69;5021915;28;45377;-81
2022/08/31 08:41:19;;;;;;;;;10.75;9.75;;;;;22.43;47.17;101574.41;5020639;28;45372;-80
2022/08/31 08:43:57;;;;;;;;;13.25;13.00;;;;;22.48;47.07;101574.22;5021355;28;46172;-81
2022/08/31 08:46:35;;;;;;;;;7.00;7.00;;;;;22.53;47.16;101572.19;5022803;28;45474;-81
2022/08/31 08:49:14;;;;;;;;;10.75;9.50;;;;;22.60;46.84;101568.34;5022583;28;45315;-81
2022/08/31 08:51:39;;;;;;;;;9.50;9.00;;;;;22.69;46.80;101569.75;5022502;28;45303;-81
2022/08/31 08:54:14;;;;;;;;;11.00;10.75;;;;;22.77;46.84;101567.63;5020493;28;47224;-81
2022/08/31 08:56:45;;;;;;;;;13.00;12.50;;;;;22.83;46.74;101577.28;5020276;28;45465;-81
2022/08/31 08:59:12;;;;;;;;;12.75;8.50;;;;;22.88;46.48;101568.09;5020261;28;45267;-81
2022/08/31 09:01:38;;;;;;;;;9.50;9.50;;;;;22.94;46.59;101571.44;5020890;28;45628;-82
2022/08/31 09:04:04;;;;;;;;;9.00;8.00;;;;;23.03;46.52;101571.09;5022798;28;45361;-81
2022/08/31 09:06:53;;;;;;;;;9.75;8.25;;;;;23.11;46.28;101561.75;5020199;28;45335;-80
2022/08/31 09:09:40;;;;;;;;;10.50;8.25;;;;;23.24;46.34;101559.41;5021018;28;45465;-80
2022/08/31 09:12:23;;;;;;;;;9.67;9.00;;;;;23.32;46.07;101559.94;5007173;28;45319;-81
2022/08/31 09:15:35;;;;;;;;;13.75;12.25;;;;;23.40;46.17;101558.75;5001842;28;45378;-80
2022/08/31 09:18:15;;;;;;;;;11.00;7.75;;;;;23.49;45.71;101555.63;5008718;28;45380;-81
2022/08/31 09:20:41;;;;;;;;;8.50;8.50;;;;;23.57;45.50;101558.84;5020009;28;45378;-81
2022/08/31 09:23:07;;;;;;;;;9.75;8.75;;;;;23.66;45.22;101557.59;5022009;28;45226;-79
2022/08/31 09:25:50;;;;;;;;;10.75;8.75;;;;;23.72;45.13;101547.44;5019333;28;47392;-81
2022/08/31 09:28:17;;;;;;;;;10.33;9.67;;;;;23.83;44.81;101543.38;5020986;28;45396;-82
2022/08/31 09:30:43;;;;;;;;;10.33;9.33;;;;;23.88;44.84;101549.44;5000836;28;45294;-81
2022/08/31 09:33:27;;;;;;;;;7.25;7.25;;;;;23.95;44.48;101548.16;4999425;28;45417;-82
2022/08/31 09:36:12;;;;;;;;;10.75;8.50;;;;;23.99;44.06;101545.28;5008780;28;47117;-81
2022/08/31 09:38:39;;;;;;;;;8.50;7.75;;;;;24.06;43.95;101540.50;5019244;28;45253;-82
2022/08/31 09:41:19;;;;;;;;;11.50;10.25;;;;;24.12;44.08;101540.19;5020898;28;45391;-81
2022/08/31 09:43:46;;;;;;;;;11.33;8.67;;;;;24.22;43.88;101532.56;5019899;28;45263;-82
2022/08/31 09:46:24;;;;;;;;;9.25;9.25;;;;;24.32;43.57;101533.84;5018372;28;45494;-82
2022/08/31 09:48:55;;;;;;;;;7.00;7.00;;;;;24.38;44.01;101535.38;5015553;28;45395;-83
2022/08/31 09:51:24;;;;;;;;;10.25;9.75;;;;;24.51;43.39;101539.25;5000361;28;45365;-82
2022/08/31 09:56:57;;;;;;;;;8.00;7.75;;;;;24.72;42.61;101528.34;5019687;28;45347;-82
2022/08/31 09:59:36;;;;;;;;;8.25;6.25;;;;;24.76;42.76;101520.03;5018431;28;45801;-82
2022/08/31 10:02:27;;;;;;;;;8.67;7.67;;;;;24.81;42.56;101522.50;5018520;28;45321;-80
2022/08/31 10:04:54;;;;;;;;;7.00;6.33;;;;;24.90;42.28;101524.72;5014724;28;45565;-82
2022/08/31 10:07:43;;;;;;;;;6.00;6.00;;;;;24.99;42.54;101523.34;5000761;28;45394;-82
2022/08/31 10:10:13;;;;;;;;;10.00;8.67;;;;;25.05;42.32;101510.47;4998874;28;45596;-82
2022/08/31 10:12:56;;;;;;;;;6.67;6.00;;;;;25.15;42.48;101504.56;4998592;28;45273;-82
2022/08/31 10:15:42;;;;;;;;;8.50;7.25;;;;;25.25;41.71;101509.44;4998601;28;45352;-80
2022/08/31 10:18:18;;;;;;;;;9.00;8.00;;;;;25.33;41.83;101509.03;5008572;28;45529;-80
2022/08/31 10:20:50;;;;;;;;;6.75;6.50;;;;;25.38;41.53;101498.00;5018226;28;45457;-81
2022/08/31 10:23:56;;;;;;;;;9.33;7.33;;;;;25.45;41.59;101494.91;5019638;28;45391;-80
2022/08/31 10:26:32;;;;;;;;;9.67;9.00;;;;;25.55;41.28;101497.94;5018231;28;45531;-80
2022/08/31 10:29:05;;;;;;;;;7.67;7.00;;;;;25.68;41.39;101487.34;5018735;28;47131;-80
2022/08/31 10:31:45;;;;;;;;;8.00;8.00;;;;;25.82;41.40;101500.97;5018689;28;45366;-79
2022/08/31 10:37:14;;;;;;;;;6.75;6.25;;;;;26.02;41.07;101493.63;5002035;28;45396;-80
2022/08/31 10:39:49;;;;;;;;;8.00;7.00;;;;;26.11;40.59;101491.25;4998552;28;48089;-81
2022/08/31 10:42:25;;;;;;;;;10.00;8.00;;;;;26.18;40.71;101489.94;4998295;28;45190;-80
2022/08/31 10:45:10;;;;;;;;;11.33;8.67;;;;;26.30;40.48;101487.47;4999292;28;45221;-81
2022/08/31 10:47:43;;;;;;;;;8.00;6.00;;;;;26.47;40.62;101487.38;5009099;28;45886;-81
2022/08/31 10:50:15;;;;;;;;;9.00;8.50;;;;;26.68;39.83;101481.69;5018891;28;45547;-81
2022/08/31 10:52:56;;;;;;;;;7.67;6.67;;;;;26.79;39.91;101482.81;5018335;28;45427;-81
2022/08/31 10:55:36;;;;;;;;;7.00;7.00;;;;;26.98;39.68;101477.16;5013477;28;45337;-79
2022/08/31 10:58:17;;;;;;;;;9.50;9.50;;;;;27.17;39.16;101486.88;5020392;28;46317;-81
2022/08/31 11:00:55;;;;;;;;;8.00;6.33;;;;;27.31;38.93;101476.06;5001537;28;47104;-82
2022/08/31 11:03:51;;;;;;;;;17.25;15.50;;;;;27.47;38.79;101478.69;5008053;28;45432;-82
2022/08/31 11:06:16;;;;;;;;;9.00;9.00;;;;;27.61;38.54;101472.38;5020775;28;45348;-82
2022/08/31 11:09:09;;;;;;;;;7.67;7.33;;;;;27.73;38.08;101478.88;5021118;28;45395;-82
2022/08/31 11:11:41;;;;;;;;;8.00;7.33;;;;;27.77;38.11;101477.69;5021331;28;48615;-82
2022/08/31 11:14:35;;;;;;;;;10.75;9.75;;;;;27.86;38.16;101469.03;5018120;28;45395;-82
2022/08/31 11:17:07;;;;;;;;;7.33;7.33;;;;;28.02;37.53;101483.28;5001050;28;45277;-82
2022/08/31 11:19:33;;;;;;;;;9.67;9.67;;;;;28.13;37.14;101475.31;5008326;28;45693;-82
2022/08/31 11:22:15;;;;;;;;;8.00;8.00;;;;;28.23;37.08;101477.41;5021801;28;46374;-82
2022/08/31 11:24:59;;;;;;;;;11.00;8.33;;;;;28.29;36.75;101472.47;5020749;28;45409;-82
2022/08/31 11:27:32;;;;;;;;;9.33;8.00;;;;;28.41;36.67;101461.78;5021594;28;45546;-82
2022/08/31 11:30:23;;;;;;;;;8.33;8.33;;;;;28.63;36.28;101466.63;5020664;28;45305;-82
2022/08/31 11:32:56;;;;;;;;;6.67;6.67;;;;;28.75;36.13;101460.38;5020634;28;47325;-82
2022/08/31 11:36:04;;;;;;;;;6.67;6.67;;;;;28.86;35.59;101460.50;5020704;28;45410;-82
2022/08/31 11:39:11;;;;;;;;;7.33;7.33;;;;;29.01;35.32;101464.00;5020702;28;45198;-82
2022/08/31 11:41:47;;;;;;;;;6.33;5.00;;;;;29.16;35.30;101462.97;5021762;28;45186;-82
2022/08/31 11:44:28;;;;;;;;;6.00;6.00;;;;;29.34;35.18;101457.19;5020295;28;47789;-82
2022/08/31 11:47:14;;;;;;;;;8.67;7.00;;;;;29.45;35.03;101460.84;5020715;28;45570;-82
2022/08/31 11:49:45;;;;;;;;;9.67;9.33;;;;;29.57;34.28;101453.69;5020844;28;45396;-82
2022/08/31 11:52:23;;;;;;;;;11.67;8.67;;;;;29.75;34.41;101448.81;5020795;28;45586;-82